createdAt,value
2023-05-16T00:02:13.706Z,3.42
2023-05-16T00:04:41.024Z,3.15
2023-05-16T00:07:08.152Z,3.35
2023-05-16T00:09:35.377Z,3.80
2023-05-16T00:12:02.535Z,3.85
2023-05-16T00:14:29.804Z,3.78
2023-05-16T00:17:01.105Z,4.22
2023-05-16T00:19:28.552Z,3.60
2023-05-16T00:21:55.668Z,3.45
2023-05-16T00:24:22.774Z,4.20
2023-05-16T00:26:49.997Z,3.90
2023-05-16T00:29:17.094Z,3.40
2023-05-16T00:31:44.257Z,3.85
2023-05-16T00:34:11.419Z,3.80
2023-05-16T00:36:38.581Z,3.63
2023-05-16T00:39:05.707Z,3.85
2023-05-16T00:41:32.898Z,3.83
2023-05-16T00:43:59.976Z,4.00
2023-05-16T00:46:27.119Z,3.70
2023-05-16T00:48:54.285Z,3.70
2023-05-16T00:51:21.448Z,3.90
2023-05-16T00:53:48.812Z,3.60
2023-05-16T00:56:16.673Z,4.32
2023-05-16T00:58:43.858Z,3.90
2023-05-16T01:01:11.802Z,4.05
2023-05-16T01:03:39.796Z,3.90
2023-05-16T01:06:07.039Z,3.63
2023-05-16T01:08:34.193Z,3.80
2023-05-16T01:11:04.099Z,3.88
2023-05-16T01:14:00.635Z,3.63
2023-05-16T01:16:37.625Z,3.97
2023-05-16T01:19:20.571Z,4.30
2023-05-16T01:22:02.375Z,3.67
2023-05-16T01:24:29.459Z,4.35
2023-05-16T01:26:57.590Z,4.00
2023-05-16T01:29:24.700Z,4.15
2023-05-16T01:31:51.866Z,3.95
2023-05-16T01:34:19.086Z,3.92
2023-05-16T01:36:53.907Z,3.95
2023-05-16T01:39:22.236Z,3.90
2023-05-16T01:42:09.517Z,4.50
2023-05-16T01:44:42.700Z,4.25
2023-05-16T01:47:14.220Z,3.80
2023-05-16T01:49:47.450Z,4.47
2023-05-16T01:52:16.885Z,4.45
2023-05-16T01:54:45.519Z,4.35
2023-05-16T01:57:13.778Z,4.10
2023-05-16T01:59:42.965Z,4.88
2023-05-16T02:02:10.391Z,4.80
2023-05-16T02:04:37.526Z,4.97
2023-05-16T02:07:04.927Z,4.60
2023-05-16T02:09:32.032Z,4.57
2023-05-16T02:12:00.594Z,4.60
2023-05-16T02:14:27.900Z,4.30
2023-05-16T02:16:56.183Z,4.63
2023-05-16T02:19:23.314Z,4.25
2023-05-16T02:21:51.235Z,4.60
2023-05-16T02:24:18.416Z,4.80
2023-05-16T02:26:45.727Z,4.50
2023-05-16T02:29:12.837Z,4.60
2023-05-16T02:31:40.094Z,4.57
2023-05-16T02:34:07.488Z,4.78
2023-05-16T02:36:36.019Z,4.43
2023-05-16T02:39:07.704Z,5.00
2023-05-16T02:41:34.847Z,4.53
2023-05-16T02:44:01.944Z,4.68
2023-05-16T02:46:33.975Z,5.00
2023-05-16T02:49:01.892Z,4.47
2023-05-16T02:51:29.311Z,4.93
2023-05-16T02:53:57.334Z,4.43
2023-05-16T02:56:24.537Z,4.53
2023-05-16T02:58:51.692Z,5.10
2023-05-16T03:01:18.910Z,4.38
2023-05-16T03:03:46.244Z,4.45
2023-05-16T03:06:13.619Z,5.18
2023-05-16T03:08:40.786Z,5.70
2023-05-16T03:11:07.899Z,4.80
2023-05-16T03:13:35.068Z,5.18
2023-05-16T03:16:03.087Z,4.78
2023-05-16T03:18:30.353Z,5.15
2023-05-16T03:20:58.145Z,4.75
2023-05-16T03:23:25.289Z,5.15
2023-05-16T03:25:52.388Z,5.32
2023-05-16T03:28:19.565Z,5.00
2023-05-16T03:30:46.674Z,5.45
2023-05-16T03:33:13.811Z,5.20
2023-05-16T03:35:40.999Z,5.40
2023-05-16T03:38:08.231Z,5.80
2023-05-16T03:40:36.167Z,4.88
2023-05-16T03:43:04.074Z,5.28
2023-05-16T03:45:32.207Z,5.93
2023-05-16T03:47:59.382Z,5.28
2023-05-16T03:50:26.573Z,5.90
2023-05-16T03:52:54.351Z,6.72
2023-05-16T03:55:21.980Z,5.97
2023-05-16T03:57:50.196Z,6.30
2023-05-16T04:00:17.874Z,5.97
2023-05-16T04:02:45.271Z,5.70
2023-05-16T04:05:13.884Z,5.90
2023-05-16T04:07:41.207Z,6.10
2023-05-16T04:10:08.723Z,6.15
2023-05-16T04:12:36.077Z,6.22
2023-05-16T04:15:07.238Z,6.20
2023-05-16T04:17:34.838Z,5.65
2023-05-16T04:20:02.026Z,6.35
2023-05-16T04:22:29.155Z,5.72
2023-05-16T04:24:56.788Z,7.00
2023-05-16T04:27:24.059Z,6.60
2023-05-16T04:29:51.181Z,6.28
2023-05-16T04:32:18.467Z,6.35
2023-05-16T04:34:46.782Z,6.93
2023-05-16T04:37:14.168Z,6.70
2023-05-16T04:39:41.338Z,6.85
2023-05-16T04:42:08.550Z,6.80
2023-05-16T04:44:35.708Z,7.15
2023-05-16T04:47:02.870Z,6.55
2023-05-16T04:49:30.065Z,6.88
2023-05-16T04:51:57.183Z,6.90
2023-05-16T04:54:24.492Z,7.45
2023-05-16T04:56:51.701Z,6.65
2023-05-16T04:59:18.806Z,6.72
2023-05-16T05:01:45.941Z,7.32
2023-05-16T05:04:13.141Z,6.97
2023-05-16T05:06:41.162Z,7.35
2023-05-16T05:09:08.419Z,7.60
2023-05-16T05:11:35.586Z,7.53
2023-05-16T05:14:02.681Z,8.02
2023-05-16T05:16:29.866Z,7.22
2023-05-16T05:18:57.021Z,8.52
2023-05-16T05:21:25.371Z,7.78
2023-05-16T05:23:52.484Z,8.73
2023-05-16T05:26:19.743Z,8.38
2023-05-16T05:28:53.852Z,9.02
2023-05-16T05:31:24.721Z,9.60
2023-05-16T05:33:51.923Z,9.45
2023-05-16T05:36:19.041Z,9.25
2023-05-16T05:38:46.220Z,8.70
2023-05-16T05:41:14.232Z,9.13
2023-05-16T05:43:41.383Z,9.48
2023-05-16T05:46:08.567Z,8.63
2023-05-16T05:48:35.965Z,8.50
2023-05-16T05:51:03.123Z,9.68
2023-05-16T05:53:30.476Z,8.30
2023-05-16T05:55:58.332Z,9.18
2023-05-16T05:58:25.594Z,9.10
2023-05-16T06:00:52.748Z,8.27
2023-05-16T06:03:21.233Z,8.10
2023-05-16T06:05:48.929Z,8.10
2023-05-16T06:08:16.249Z,9.32
2023-05-16T06:10:43.359Z,8.68
2023-05-16T06:13:10.566Z,8.18
2023-05-16T06:15:37.747Z,9.02
2023-05-16T06:18:05.055Z,8.98
2023-05-16T06:20:32.234Z,8.63
2023-05-16T06:22:59.427Z,9.30
2023-05-16T06:25:26.902Z,8.73
2023-05-16T06:27:54.258Z,9.77
2023-05-16T06:30:21.393Z,8.40
2023-05-16T06:32:48.634Z,9.38
2023-05-16T06:35:15.756Z,8.85
2023-05-16T06:37:43.211Z,8.63
2023-05-16T06:40:10.764Z,8.63
2023-05-16T06:42:37.908Z,9.00
2023-05-16T06:45:05.354Z,9.20
2023-05-16T06:47:32.596Z,8.77
2023-05-16T06:49:59.819Z,9.43
2023-05-16T06:52:27.020Z,9.13
2023-05-16T06:54:54.253Z,8.45
2023-05-16T06:57:21.525Z,9.10
2023-05-16T06:59:48.704Z,8.60
2023-05-16T07:02:15.930Z,8.50
2023-05-16T07:04:43.142Z,9.00
2023-05-16T07:07:10.334Z,9.20
2023-05-16T07:09:37.531Z,8.32
2023-05-16T07:12:04.894Z,9.40
2023-05-16T07:14:32.112Z,8.65
2023-05-16T07:16:59.389Z,9.73
2023-05-16T07:19:26.704Z,9.30
2023-05-16T07:21:54.175Z,8.48
2023-05-16T07:24:21.316Z,9.50
2023-05-16T07:26:48.497Z,8.13
2023-05-16T07:29:15.811Z,8.90
2023-05-16T07:31:42.968Z,8.95
2023-05-16T07:34:11.003Z,10.73
2023-05-16T07:36:38.608Z,10.70
2023-05-16T07:39:05.859Z,9.88
2023-05-16T07:41:32.987Z,10.82
2023-05-16T07:44:00.155Z,11.25
2023-05-16T07:46:27.418Z,9.73
2023-05-16T07:48:54.620Z,10.10
2023-05-16T07:51:21.836Z,10.05
2023-05-16T07:53:49.003Z,10.40
2023-05-16T07:56:16.229Z,10.60
2023-05-16T07:58:43.931Z,10.88
2023-05-16T08:01:11.881Z,10.63
2023-05-16T08:03:39.181Z,10.45
2023-05-16T08:06:06.616Z,10.57
2023-05-16T08:08:33.834Z,10.02
2023-05-16T08:11:00.996Z,9.73
2023-05-16T08:13:28.140Z,10.18
2023-05-16T08:15:55.502Z,10.40
2023-05-16T08:18:23.045Z,10.40
2023-05-16T08:20:51.287Z,10.27
2023-05-16T08:23:18.501Z,10.52
2023-05-16T08:25:45.836Z,10.93
2023-05-16T08:28:13.075Z,10.20
2023-05-16T08:30:42.689Z,10.38
2023-05-16T08:33:10.575Z,11.05
2023-05-16T08:35:37.875Z,10.07
2023-05-16T08:38:05.030Z,10.57
2023-05-16T08:40:32.186Z,10.77
2023-05-16T08:42:59.472Z,11.25
2023-05-16T08:45:27.307Z,11.32
2023-05-16T08:47:58.395Z,10.60
2023-05-16T08:50:25.836Z,10.48
2023-05-16T08:52:54.140Z,10.35
2023-05-16T08:55:24.545Z,11.32
2023-05-16T08:57:52.043Z,11.35
2023-05-16T09:00:19.731Z,10.30
2023-05-16T09:02:47.287Z,10.75
2023-05-16T09:05:18.418Z,10.35
2023-05-16T09:07:46.174Z,11.40
2023-05-16T09:10:13.865Z,12.00
2023-05-16T09:12:44.788Z,11.63
2023-05-16T09:15:12.356Z,11.27
2023-05-16T09:17:45.882Z,10.45
2023-05-16T09:20:14.564Z,11.23
2023-05-16T09:22:51.171Z,11.25
2023-05-16T09:25:29.368Z,9.63
2023-05-16T09:27:59.875Z,9.55
2023-05-16T09:30:31.478Z,9.00
2023-05-16T09:32:59.204Z,9.23
2023-05-16T09:37:57.161Z,9.40
2023-05-16T09:40:24.832Z,9.85
2023-05-16T09:43:05.732Z,8.82
2023-05-16T09:45:34.125Z,9.43
2023-05-16T09:48:13.359Z,9.02
2023-05-16T09:50:42.833Z,9.20
2023-05-16T09:53:10.035Z,9.30
2023-05-16T09:55:37.220Z,9.52
2023-05-16T09:58:04.463Z,9.68
2023-05-16T10:00:33.100Z,10.13
2023-05-16T10:03:04.055Z,9.50
2023-05-16T10:05:32.361Z,10.27
2023-05-16T10:07:59.639Z,9.68
2023-05-16T10:10:28.545Z,9.73
2023-05-16T10:12:58.453Z,9.80
2023-05-16T10:15:26.829Z,10.27
2023-05-16T10:17:56.632Z,10.60
2023-05-16T10:20:24.239Z,10.30
2023-05-16T10:22:53.605Z,10.57
2023-05-16T10:25:30.183Z,10.70
2023-05-16T10:27:59.089Z,10.38
2023-05-16T10:30:26.978Z,10.80
2023-05-16T10:32:54.412Z,11.63
2023-05-16T10:35:22.088Z,12.07
2023-05-16T10:37:50.384Z,11.63
2023-05-16T10:40:18.125Z,11.02
2023-05-16T10:42:55.794Z,11.63
2023-05-16T10:45:23.231Z,11.52
2023-05-16T10:48:08.806Z,11.48
2023-05-16T10:50:40.502Z,12.60
2023-05-16T10:53:13.537Z,12.32
2023-05-16T10:55:41.532Z,11.85
2023-05-16T10:58:08.749Z,12.50
2023-05-16T11:00:35.963Z,11.85
2023-05-16T11:03:07.834Z,12.23
2023-05-16T11:05:35.389Z,12.85
2023-05-16T11:08:09.605Z,13.60
2023-05-16T11:10:36.793Z,12.98
2023-05-16T11:13:08.043Z,14.68
2023-05-16T11:15:35.360Z,13.75
2023-05-16T11:18:09.116Z,12.90
2023-05-16T11:20:40.572Z,11.80
2023-05-16T11:23:22.721Z,12.52
2023-05-16T11:25:53.968Z,12.70
2023-05-16T11:28:21.729Z,11.88
2023-05-16T11:30:55.238Z,10.35
2023-05-16T11:33:23.130Z,12.40
2023-05-16T11:38:43.429Z,10.13
2023-05-16T11:41:10.684Z,9.68
2023-05-16T11:43:41.855Z,10.05
2023-05-16T11:46:12.139Z,9.88
2023-05-16T11:48:39.363Z,9.48
2023-05-16T11:51:07.433Z,8.77
2023-05-16T11:53:35.124Z,9.38
2023-05-16T11:56:02.450Z,9.73
2023-05-16T11:58:30.008Z,9.20
2023-05-16T12:00:57.764Z,10.68
2023-05-16T12:03:25.264Z,11.05
2023-05-16T12:05:53.571Z,10.75
2023-05-16T12:08:21.991Z,11.93
2023-05-16T12:10:53.793Z,11.80
2023-05-16T12:13:21.767Z,12.50
2023-05-16T12:15:49.145Z,12.60
2023-05-16T12:18:16.664Z,12.75
2023-05-16T12:20:44.717Z,13.00
2023-05-16T12:23:12.844Z,12.57
2023-05-16T12:25:45.909Z,13.63
2023-05-16T12:28:14.129Z,12.93
2023-05-16T12:30:43.136Z,13.25
2023-05-16T12:33:10.475Z,13.10
2023-05-16T12:35:45.106Z,13.10
2023-05-16T12:38:13.534Z,12.70
2023-05-16T12:40:41.808Z,12.95
2023-05-16T12:43:15.385Z,13.40
2023-05-16T12:45:43.368Z,12.43
2023-05-16T12:48:14.451Z,13.07
2023-05-16T12:50:42.027Z,12.27
2023-05-16T12:53:14.010Z,12.50
2023-05-16T12:55:41.610Z,13.10
2023-05-16T12:58:09.248Z,13.73
2023-05-16T13:00:37.508Z,12.57
2023-05-16T13:03:05.656Z,12.57
2023-05-16T13:05:32.893Z,13.73
2023-05-16T13:08:00.118Z,13.57
2023-05-16T13:10:27.771Z,14.00
2023-05-16T13:12:58.414Z,14.18
2023-05-16T13:15:26.780Z,13.93
2023-05-16T13:17:54.467Z,14.02
2023-05-16T13:20:21.828Z,13.93
2023-05-16T13:22:49.215Z,13.32
2023-05-16T13:25:16.363Z,13.82
2023-05-16T13:27:44.008Z,13.93
2023-05-16T13:30:11.653Z,14.23
2023-05-16T13:32:38.995Z,13.80
2023-05-16T13:35:06.409Z,13.93
2023-05-16T13:37:33.686Z,13.95
2023-05-16T13:40:00.924Z,13.52
2023-05-16T13:42:28.138Z,14.70
2023-05-16T13:44:55.582Z,14.98
2023-05-16T13:47:22.781Z,8.60
2023-05-16T13:49:50.036Z,7.72
2023-05-16T13:52:17.224Z,6.38
2023-05-16T13:54:44.457Z,6.20
2023-05-16T13:57:11.666Z,6.50
2023-05-16T14:00:04.035Z,5.78
2023-05-16T14:02:26.652Z,5.05
2023-05-16T14:04:54.190Z,4.97
2023-05-16T14:07:21.375Z,5.75
2023-05-16T14:09:48.528Z,6.47
2023-05-16T14:12:15.724Z,6.22
2023-05-16T14:14:42.949Z,6.53
2023-05-16T14:17:10.204Z,7.03
2023-05-16T14:19:37.417Z,7.00
2023-05-16T14:22:05.500Z,7.10
2023-05-16T14:24:33.983Z,7.15
2023-05-16T14:27:01.935Z,7.32
2023-05-16T14:29:29.185Z,7.35
2023-05-16T14:31:56.590Z,7.40
2023-05-16T14:34:23.964Z,8.07
2023-05-16T14:36:51.298Z,7.82
2023-05-16T14:39:18.529Z,8.15
2023-05-16T14:41:45.903Z,7.60
2023-05-16T14:44:13.094Z,7.63
2023-05-16T14:46:40.575Z,8.25
2023-05-16T14:49:09.124Z,8.18
2023-05-16T14:51:36.420Z,8.60
2023-05-16T14:54:04.059Z,7.88
2023-05-16T14:56:31.964Z,7.05
2023-05-16T14:59:00.320Z,8.57
2023-05-16T15:01:27.532Z,7.80
2023-05-16T15:03:56.307Z,8.00
2023-05-16T15:06:24.401Z,7.60
2023-05-16T15:08:51.949Z,7.80
2023-05-16T15:11:19.457Z,7.50
2023-05-16T15:13:49.925Z,7.72
2023-05-16T15:16:17.175Z,7.45
2023-05-16T15:18:44.539Z,8.00
2023-05-16T15:21:11.716Z,7.85
2023-05-16T15:23:38.943Z,7.68
2023-05-16T15:26:06.537Z,7.10
2023-05-16T15:28:33.721Z,7.47
2023-05-16T15:31:00.897Z,7.20
2023-05-16T15:33:28.053Z,7.13
2023-05-16T15:35:56.019Z,7.53
2023-05-16T15:38:23.189Z,7.95
2023-05-16T15:40:55.290Z,8.35
2023-05-16T15:43:33.222Z,7.65
2023-05-16T15:46:00.785Z,8.63
2023-05-16T15:48:27.954Z,8.05
2023-05-16T15:50:55.172Z,8.27
2023-05-16T15:53:22.300Z,8.50
2023-05-16T15:55:49.452Z,8.18
2023-05-16T15:58:16.631Z,9.05
2023-05-16T16:00:45.557Z,8.35
2023-05-16T16:03:12.888Z,8.15
2023-05-16T16:05:40.294Z,8.48
2023-05-16T16:08:07.460Z,8.30
2023-05-16T16:10:34.759Z,8.57
2023-05-16T16:13:02.419Z,8.95
2023-05-16T16:15:32.833Z,8.80
2023-05-16T16:18:01.268Z,9.07
2023-05-16T16:20:28.683Z,8.43
2023-05-16T16:22:55.830Z,8.57
2023-05-16T16:25:23.066Z,9.38
2023-05-16T16:27:50.354Z,9.27
2023-05-16T16:30:17.628Z,8.60
2023-05-16T16:32:44.822Z,9.15
2023-05-16T16:35:12.036Z,9.13
2023-05-16T16:37:39.228Z,9.40
2023-05-16T16:40:09.159Z,10.10
2023-05-16T16:42:38.555Z,9.93
2023-05-16T16:45:06.137Z,10.23
2023-05-16T16:47:33.614Z,10.15
2023-05-16T16:50:01.395Z,10.18
2023-05-16T16:52:28.755Z,10.20
2023-05-16T16:54:56.035Z,9.18
2023-05-16T16:57:23.285Z,10.75
2023-05-16T16:59:50.722Z,10.63
2023-05-16T17:02:18.170Z,10.73
2023-05-16T17:04:45.417Z,11.77
2023-05-16T17:07:12.588Z,11.65
2023-05-16T17:09:42.223Z,11.77
2023-05-16T17:12:19.122Z,11.85
2023-05-16T17:14:50.069Z,12.05
2023-05-16T17:17:17.800Z,11.93
2023-05-16T17:19:47.357Z,12.02
2023-05-16T17:22:14.596Z,12.35
2023-05-16T17:24:42.117Z,12.77
2023-05-16T17:27:09.357Z,12.65
2023-05-16T17:29:37.425Z,13.32
2023-05-16T17:32:06.155Z,13.15
2023-05-16T17:34:33.890Z,13.25
2023-05-16T17:37:01.564Z,13.18
2023-05-16T17:39:29.111Z,11.85
2023-05-16T17:41:57.414Z,12.60
2023-05-16T17:44:24.623Z,13.40
2023-05-16T17:46:52.135Z,12.70
2023-05-16T17:49:19.429Z,12.68
2023-05-16T17:51:50.342Z,13.07
2023-05-16T17:54:18.508Z,13.05
2023-05-16T17:56:46.596Z,12.05
2023-05-16T17:59:14.240Z,11.50
2023-05-16T18:01:42.014Z,12.63
2023-05-16T18:04:09.390Z,12.27
2023-05-16T18:06:37.751Z,12.40
2023-05-16T18:09:10.157Z,12.18
2023-05-16T18:11:39.482Z,11.25
2023-05-16T18:14:09.203Z,11.90
2023-05-16T18:16:36.724Z,11.23
2023-05-16T18:19:05.472Z,12.07
2023-05-16T18:21:32.826Z,13.05
2023-05-16T18:24:00.123Z,11.55
2023-05-16T18:26:29.169Z,12.07
2023-05-16T18:28:56.620Z,12.20
2023-05-16T18:31:23.896Z,13.27
2023-05-16T18:33:51.071Z,12.10
2023-05-16T18:36:18.772Z,12.52
2023-05-16T18:38:46.172Z,12.77
2023-05-16T18:41:13.474Z,12.88
2023-05-16T18:43:40.760Z,13.82
2023-05-16T18:46:07.922Z,12.70
2023-05-16T18:48:36.362Z,12.40
2023-05-16T18:51:03.711Z,12.88
2023-05-16T18:53:30.950Z,12.88
2023-05-16T18:55:58.854Z,12.52
2023-05-16T18:58:26.217Z,12.50
2023-05-16T19:00:53.370Z,12.27
2023-05-16T19:03:20.720Z,12.40
2023-05-16T19:05:48.396Z,11.80
2023-05-16T19:08:16.839Z,12.25
2023-05-16T19:10:44.096Z,11.88
2023-05-16T19:13:11.313Z,10.90
2023-05-16T19:15:41.185Z,11.38
2023-05-16T19:18:08.428Z,10.25
2023-05-16T19:20:36.024Z,10.73
2023-05-16T19:23:04.184Z,11.27
2023-05-16T19:25:32.052Z,10.68
2023-05-16T19:27:59.294Z,10.13
2023-05-16T19:30:26.515Z,9.95
2023-05-16T19:32:54.718Z,8.93
2023-05-16T19:35:21.930Z,8.20
2023-05-16T19:37:49.083Z,8.13
2023-05-16T19:40:17.473Z,8.05
2023-05-16T19:42:44.935Z,8.00
2023-05-16T19:45:12.296Z,8.40
2023-05-16T19:47:39.601Z,7.97
2023-05-16T19:50:07.203Z,8.57
2023-05-16T19:52:34.741Z,8.20
2023-05-16T19:55:02.117Z,7.35
2023-05-16T19:57:29.367Z,7.93
2023-05-16T19:59:56.483Z,8.27
2023-05-16T20:02:24.730Z,8.32
2023-05-16T20:04:52.187Z,8.07
2023-05-16T20:07:19.548Z,8.38
2023-05-16T20:09:46.738Z,7.20
2023-05-16T20:12:13.911Z,7.72
2023-05-16T20:14:42.077Z,7.45
2023-05-16T20:17:09.253Z,7.75
2023-05-16T20:19:37.504Z,7.35
2023-05-16T20:22:04.983Z,7.00
2023-05-16T20:24:32.131Z,6.78
2023-05-16T20:26:59.310Z,6.43
2023-05-16T20:29:26.563Z,6.07
2023-05-16T20:31:53.786Z,5.63
2023-05-16T20:34:20.933Z,6.28
2023-05-16T20:36:48.135Z,5.97
2023-05-16T20:39:15.329Z,6.22
2023-05-16T20:41:42.458Z,6.15
2023-05-16T20:44:09.777Z,6.13
2023-05-16T20:46:36.969Z,6.45
2023-05-16T20:49:05.251Z,6.47
2023-05-16T20:51:32.454Z,6.20
2023-05-16T20:53:59.612Z,5.97
2023-05-16T20:56:26.754Z,6.43
2023-05-16T20:58:53.936Z,5.93
2023-05-16T21:01:21.113Z,6.30
2023-05-16T21:03:48.308Z,5.13
2023-05-16T21:06:15.649Z,5.30
2023-05-16T21:08:42.823Z,4.68
2023-05-16T21:11:09.952Z,4.80
2023-05-16T21:13:37.141Z,5.40
2023-05-16T21:16:04.370Z,5.03
2023-05-16T21:18:31.684Z,4.82
2023-05-16T21:20:58.921Z,4.57
2023-05-16T21:23:26.065Z,4.55
2023-05-16T21:25:53.212Z,4.18
2023-05-16T21:28:20.381Z,4.28
2023-05-16T21:30:47.720Z,3.97
2023-05-16T21:33:14.944Z,3.95
2023-05-16T21:35:42.152Z,4.07
2023-05-16T21:38:09.317Z,3.22
2023-05-16T21:40:36.483Z,4.35
2023-05-16T21:43:03.692Z,3.80
2023-05-16T21:45:30.970Z,3.63
2023-05-16T21:47:58.239Z,3.40
2023-05-16T21:50:25.534Z,3.38
2023-05-16T21:52:52.699Z,3.42
2023-05-16T21:55:19.900Z,3.10
2023-05-16T21:57:47.057Z,3.08
2023-05-16T22:00:14.554Z,3.08
2023-05-16T22:02:41.770Z,2.90
2023-05-16T22:05:09.501Z,3.33
2023-05-16T22:07:37.183Z,3.30
2023-05-16T22:10:04.964Z,3.22
2023-05-16T22:12:32.193Z,3.03
2023-05-16T22:14:59.433Z,3.00
2023-05-16T22:17:26.642Z,3.03
2023-05-16T22:19:54.042Z,2.55
2023-05-16T22:22:21.212Z,2.65
2023-05-16T22:24:48.560Z,2.60
2023-05-16T22:27:15.876Z,2.28
2023-05-16T22:29:43.029Z,2.45
2023-05-16T22:32:10.688Z,3.17
2023-05-16T22:34:39.711Z,2.83
2023-05-16T22:37:10.453Z,2.70
2023-05-16T22:39:37.726Z,2.47
2023-05-16T22:42:05.112Z,2.75
2023-05-16T22:44:32.371Z,2.50
2023-05-16T22:46:59.585Z,2.42
2023-05-16T22:49:26.755Z,2.47
2023-05-16T22:51:53.953Z,2.50
2023-05-16T22:54:21.081Z,2.80
2023-05-16T22:56:48.223Z,2.92
2023-05-16T22:59:15.592Z,3.05
2023-05-16T23:01:42.791Z,2.35
2023-05-16T23:04:10.001Z,2.78
2023-05-16T23:06:37.208Z,2.45
2023-05-16T23:09:04.820Z,2.80
2023-05-16T23:11:32.574Z,2.60
2023-05-16T23:13:59.779Z,2.70
2023-05-16T23:16:26.974Z,2.17
2023-05-16T23:18:54.223Z,2.20
2023-05-16T23:21:21.452Z,2.25
2023-05-16T23:23:48.597Z,2.22
2023-05-16T23:26:15.820Z,2.25
2023-05-16T23:28:42.979Z,2.58
2023-05-16T23:31:10.287Z,2.10
2023-05-16T23:33:37.550Z,2.10
2023-05-16T23:36:04.934Z,3.17
2023-05-16T23:38:32.077Z,2.20
2023-05-16T23:40:59.365Z,2.20
2023-05-16T23:43:26.539Z,2.20
2023-05-16T23:45:53.713Z,2.17
2023-05-16T23:48:20.953Z,2.60
2023-05-16T23:50:48.167Z,2.28
2023-05-16T23:53:16.657Z,2.30
2023-05-16T23:55:43.789Z,2.72
2023-05-16T23:58:10.916Z,2.13
